Time;durP1;ratioP1;P1;durP2;ratioP2;P2;SDS_P1;SDS_P2;PMS_P1;PMS_P2;Temp;Humidity;BMP_temperature;BMP_pressure;BME280_temperature;BME280_humidity;BME280_pressure;Samples;Min_cycle;Max_cycle;Signal;HPM_P1;HPM_P2
2023/07/10 00:00:21;;;;;;;5.40;0.90;;;;;;;15.67;100.00;99466.09;104884;1256;72746;-47
2023/07/10 00:02:49;;;;;;;3.40;0.50;;;;;;;15.62;100.00;99469.70;104912;1256;66413;-47
2023/07/10 00:05:18;;;;;;;2.40;0.60;;;;;;;15.59;100.00;99474.13;104998;1256;73357;-47
2023/07/10 00:07:45;;;;;;;2.30;0.60;;;;;;;15.54;100.00;99476.25;105245;1256;61905;-46
2023/07/10 00:10:15;;;;;;;3.90;0.90;;;;;;;15.50;100.00;99475.58;105091;1256;60572;-47
2023/07/10 00:12:43;;;;;;;7.80;0.60;;;;;;;15.47;100.00;99469.34;105320;1264;73834;-48
2023/07/10 00:17:39;;;;;;;2.50;0.60;;;;;;;15.47;100.00;99491.23;101844;1294;602155;-48
2023/07/10 00:20:15;;;;;;;4.40;1.00;;;;;;;15.43;100.00;99497.82;104761;1259;59390;-49
2023/07/10 00:22:42;;;;;;;0.80;0.60;;;;;;;15.41;100.00;99497.98;104879;1256;59977;-47
2023/07/10 00:25:10;;;;;;;1.30;0.80;;;;;;;15.38;100.00;99497.83;104612;1257;71054;-49
2023/07/10 00:27:38;;;;;;;1.20;0.70;;;;;;;15.33;100.00;99498.36;104617;1256;67527;-48
2023/07/10 00:30:21;;;;;;;2.00;0.70;;;;;;;15.30;100.00;99502.92;104583;1260;72451;-48
2023/07/10 00:32:53;;;;;;;2.20;0.60;;;;;;;15.25;100.00;99499.33;104813;1256;61846;-47
2023/07/10 00:35:23;;;;;;;1.70;0.60;;;;;;;15.22;100.00;99501.55;105255;1256;59343;-48
2023/07/10 00:38:01;;;;;;;5.00;0.70;;;;;;;15.20;100.00;99505.11;105665;1254;72244;-48
2023/07/10 00:40:33;;;;;;;1.40;0.60;;;;;;;15.19;100.00;99505.91;105736;1257;67578;-48
2023/07/10 00:43:25;;;;;;;0.80;0.50;;;;;;;15.18;100.00;99508.89;104810;1261;72811;-48
2023/07/10 00:45:52;;;;;;;2.10;0.60;;;;;;;15.18;100.00;99510.48;104930;1259;60065;-49
2023/07/10 00:48:40;;;;;;;1.70;0.60;;;;;;;15.18;100.00;99508.73;104872;1256;61133;-48
2023/07/10 00:51:32;;;;;;;1.50;0.70;;;;;;;15.15;100.00;99511.93;105355;1259;73108;-47
2023/07/10 00:53:59;;;;;;;1.20;0.70;;;;;;;15.14;100.00;99514.88;104642;1261;66350;-47
2023/07/10 00:56:29;;;;;;;4.00;0.70;;;;;;;15.12;100.00;99520.12;104685;1257;72931;-46
2023/07/10 00:58:56;;;;;;;1.60;0.70;;;;;;;15.04;100.00;99522.48;104878;1256;59760;-49
2023/07/10 01:01:24;;;;;;;1.50;0.60;;;;;;;14.95;100.00;99520.43;104814;1256;60183;-48
2023/07/10 01:03:52;;;;;;;2.00;0.50;;;;;;;14.89;100.00;99526.08;105113;1262;71040;-48
2023/07/10 01:06:25;;;;;;;1.60;0.70;;;;;;;14.85;100.00;99529.11;104557;1264;66439;-49
2023/07/10 01:08:54;;;;;;;7.10;1.00;;;;;;;14.81;100.00;99534.21;104679;1256;72711;-47
2023/07/10 01:11:23;;;;;;;2.40;0.50;;;;;;;14.78;100.00;99531.02;105235;1256;61704;-47
2023/07/10 01:13:51;;;;;;;2.50;0.60;;;;;;;14.79;100.00;99528.28;104495;1259;59631;-48
2023/07/10 01:16:19;;;;;;;2.00;0.70;;;;;;;14.77;100.00;99537.77;105039;1262;73046;-47
2023/07/10 01:18:47;;;;;;;0.80;0.70;;;;;;;14.75;100.00;99540.63;108870;1256;68053;-47
2023/07/10 01:21:17;;;;;;;1.00;0.60;;;;;;;14.72;100.00;99540.95;108844;1256;71447;-46
2023/07/10 01:23:44;;;;;;;1.30;0.60;;;;;;;14.70;100.00;99540.02;108889;1257;60927;-46
2023/07/10 01:26:11;;;;;;;2.30;0.60;;;;;;;14.68;100.00;99541.24;108787;1256;58733;-47
2023/07/10 01:28:39;;;;;;;1.90;0.50;;;;;;;14.68;100.00;99545.42;108769;1256;73064;-48
2023/07/10 01:31:09;;;;;;;0.80;0.50;;;;;;;14.66;100.00;99547.89;108821;1256;68628;-46
2023/07/10 01:33:40;;;;;;;1.70;0.50;;;;;;;14.64;100.00;99553.64;108776;1256;73008;-46
2023/07/10 01:36:09;;;;;;;1.30;0.60;;;;;;;14.63;100.00;99548.31;108770;1256;61666;-47
2023/07/10 01:38:38;;;;;;;3.40;0.70;;;;;;;14.63;100.00;99549.37;108781;1256;59522;-47
2023/07/10 01:41:26;;;;;;;1.20;0.50;;;;;;;14.65;100.00;99557.33;108797;1256;73545;-47
2023/07/10 01:43:54;;;;;;;0.90;0.60;;;;;;;14.66;100.00;99563.60;108800;1255;66220;-46
2023/07/10 01:46:24;;;;;;;0.80;0.60;;;;;;;14.65;100.00;99562.03;108801;1255;73119;-47
2023/07/10 01:48:54;;;;;;;1.40;0.60;;;;;;;14.62;100.00;99566.41;108873;1255;60531;-46
2023/07/10 01:51:22;;;;;;;2.50;0.70;;;;;;;14.61;100.00;99569.38;108841;1256;57835;-47
2023/07/10 01:53:50;;;;;;;3.20;0.60;;;;;;;14.60;100.00;99573.05;108755;1261;72966;-47
2023/07/10 01:56:19;;;;;;;2.00;0.50;;;;;;;14.57;100.00;99572.52;108942;1259;68363;-47
2023/07/10 01:58:47;;;;;;;4.30;0.50;;;;;;;14.54;100.00;99576.21;108749;1256;71460;-47
2023/07/10 02:01:14;;;;;;;1.40;0.60;;;;;;;14.50;100.00;99576.45;108720;1256;59844;-48
2023/07/10 02:03:41;;;;;;;2.10;0.50;;;;;;;14.49;100.00;99578.88;108661;1256;60484;-48
2023/07/10 02:06:11;;;;;;;4.20;0.70;;;;;;;14.51;100.00;99582.90;107334;1261;72187;-47
2023/07/10 02:08:39;;;;;;;3.70;0.50;;;;;;;14.52;100.00;99582.66;104684;1264;67111;-47
2023/07/10 02:11:07;;;;;;;6.40;0.60;;;;;;;14.53;100.00;99584.20;104532;1259;72053;-48
2023/07/10 02:13:37;;;;;;;2.50;0.50;;;;;;;14.56;100.00;99585.23;104735;1256;60101;-49
2023/07/10 02:16:04;;;;;;;0.90;0.80;;;;;;;14.59;100.00;99590.64;104763;1256;60390;-47
2023/07/10 02:18:32;;;;;;;6.50;0.50;;;;;;;14.61;100.00;99593.09;104796;1256;73921;-47
2023/07/10 02:20:59;;;;;;;0.50;0.50;;;;;;;14.60;100.00;99603.95;104752;1260;67538;-48
2023/07/10 02:23:27;;;;;;;1.80;0.60;;;;;;;14.59;100.00;99602.76;104822;1256;72449;-46
2023/07/10 02:25:55;;;;;;;3.60;0.60;;;;;;;14.57;100.00;99600.01;105101;1262;61644;-46
2023/07/10 02:28:22;;;;;;;1.90;0.60;;;;;;;14.58;100.00;99602.31;104803;1260;59622;-47
2023/07/10 02:30:49;;;;;;;1.80;0.40;;;;;;;14.60;100.00;99605.77;104880;1262;72906;-46
2023/07/10 02:33:18;;;;;;;1.00;0.60;;;;;;;14.63;100.00;99609.73;104716;1256;66322;-47
2023/07/10 02:35:46;;;;;;;0.90;0.50;;;;;;;14.64;100.00;99608.70;104853;1262;72980;-48
2023/07/10 02:38:14;;;;;;;1.90;0.60;;;;;;;14.65;100.00;99610.63;105319;1262;59796;-47
2023/07/10 02:40:44;;;;;;;1.60;0.80;;;;;;;14.65;100.00;99612.60;104735;1259;59639;-47
2023/07/10 02:43:12;;;;;;;1.10;0.60;;;;;;;14.64;100.00;99616.88;104778;1262;73048;-46
2023/07/10 02:45:39;;;;;;;1.00;0.70;;;;;;;14.62;100.00;99618.09;104975;1261;66432;-45
2023/07/10 02:48:06;;;;;;;2.40;0.50;;;;;;;14.63;100.00;99619.86;104733;1256;72724;-47
2023/07/10 02:50:34;;;;;;;2.10;0.60;;;;;;;14.64;100.00;99620.13;104607;1263;62808;-46
2023/07/10 02:53:01;;;;;;;1.60;0.70;;;;;;;14.65;100.00;99625.96;104715;1256;60014;-47
2023/07/10 02:55:29;;;;;;;1.40;0.60;;;;;;;14.66;100.00;99627.35;104745;1261;73049;-46
2023/07/10 02:57:56;;;;;;;2.00;0.60;;;;;;;14.68;100.00;99629.61;104715;1261;67677;-47
2023/07/10 03:00:23;;;;;;;4.20;0.60;;;;;;;14.73;100.00;99633.37;105149;1256;71729;-44
2023/07/10 03:02:54;;;;;;;0.70;0.60;;;;;;;14.77;100.00;99633.32;104824;1256;60034;-46
2023/07/10 03:05:22;;;;;;;2.40;0.60;;;;;;;14.80;100.00;99631.48;105309;1256;59813;-46
2023/07/10 03:07:50;;;;;;;2.60;0.60;;;;;;;14.83;100.00;99628.79;104788;1262;72993;-46
2023/07/10 03:10:18;;;;;;;0.80;0.60;;;;;;;14.86;100.00;99634.36;104921;1256;66592;-47
2023/07/10 03:12:46;;;;;;;0.70;0.60;;;;;;;14.89;100.00;99634.70;105628;1262;72491;-48
2023/07/10 03:15:13;;;;;;;3.90;0.50;;;;;;;14.91;100.00;99630.19;104838;1256;62507;-47
2023/07/10 03:17:41;;;;;;;4.90;0.60;;;;;;;14.96;100.00;99623.73;104818;1262;59643;-47
2023/07/10 03:20:10;;;;;;;0.80;0.60;;;;;;;15.02;100.00;99626.70;104815;1260;71775;-45
2023/07/10 03:22:37;;;;;;;4.20;0.60;;;;;;;15.09;100.00;99626.27;104808;1260;66304;-45
2023/07/10 03:25:05;;;;;;;1.30;0.50;;;;;;;15.16;100.00;99630.48;104865;1262;73651;-45
2023/07/10 03:27:32;;;;;;;1.40;0.60;;;;;;;15.23;100.00;99628.91;104876;1256;59533;-47
2023/07/10 03:30:00;;;;;;;2.00;0.60;;;;;;;15.30;100.00;99632.20;104793;1256;59999;-48
2023/07/10 03:32:27;;;;;;;0.90;0.60;;;;;;;15.37;100.00;99634.08;104642;1256;73082;-46
2023/07/10 03:34:57;;;;;;;1.00;0.70;;;;;;;15.42;100.00;99634.40;104881;1259;66641;-45
2023/07/10 03:37:25;;;;;;;2.90;0.60;;;;;;;15.48;100.00;99636.15;104843;1262;72668;-47
2023/07/10 03:39:52;;;;;;;0.90;0.60;;;;;;;15.53;100.00;99635.48;104851;1257;60400;-47
2023/07/10 03:42:20;;;;;;;1.70;0.80;;;;;;;15.56;100.00;99639.08;104866;1259;59752;-49
2023/07/10 03:44:47;;;;;;;0.60;0.50;;;;;;;15.59;100.00;99635.24;104769;1256;73512;-46
2023/07/10 03:47:14;;;;;;;2.40;0.60;;;;;;;15.63;100.00;99633.87;104784;1262;67903;-48
2023/07/10 03:49:41;;;;;;;1.10;0.50;;;;;;;15.69;100.00;99631.13;104726;1259;72655;-47
2023/07/10 03:52:09;;;;;;;0.70;0.60;;;;;;;15.75;100.00;99630.10;104690;1262;60004;-46
2023/07/10 03:54:36;;;;;;;1.80;1.00;;;;;;;15.83;100.00;99627.34;104822;1256;60154;-47
2023/07/10 03:57:04;;;;;;;0.70;0.70;;;;;;;15.92;100.00;99626.02;104844;1260;73456;-47
2023/07/10 03:59:31;;;;;;;0.60;0.50;;;;;;;15.98;100.00;99626.65;104728;1259;67983;-46
2023/07/10 04:01:58;;;;;;;0.80;0.60;;;;;;;16.03;100.00;99627.34;104777;1257;72682;-46
2023/07/10 04:04:26;;;;;;;0.80;0.70;;;;;;;16.07;100.00;99629.27;104608;1262;60061;-48
2023/07/10 04:06:53;;;;;;;0.60;0.60;;;;;;;16.10;100.00;99626.32;104575;1258;59750;-48
2023/07/10 04:09:21;;;;;;;1.50;0.70;;;;;;;16.13;100.00;99631.02;105270;1261;73109;-47
2023/07/10 04:11:48;;;;;;;4.30;0.80;;;;;;;16.15;100.00;99629.78;104628;1258;67861;-46
2023/07/10 04:14:15;;;;;;;0.70;0.60;;;;;;;16.19;100.00;99628.73;104588;1262;72546;-47
2023/07/10 04:16:43;;;;;;;4.40;1.00;;;;;;;16.24;100.00;99623.08;105471;1259;60541;-47
2023/07/10 04:19:10;;;;;;;0.60;0.60;;;;;;;16.33;100.00;99618.31;104844;1256;60154;-45
2023/07/10 04:21:38;;;;;;;1.10;0.70;;;;;;;16.41;100.00;99614.05;104667;1262;73032;-47
2023/07/10 04:24:05;;;;;;;1.70;0.80;;;;;;;16.50;100.00;99610.49;104715;1262;66482;-48
2023/07/10 04:26:33;;;;;;;2.10;0.70;;;;;;;16.57;100.00;99611.91;104733;1262;71481;-48
2023/07/10 04:29:03;;;;;;;0.70;0.50;;;;;;;16.64;100.00;99611.11;104760;1258;60462;-48
2023/07/10 04:31:31;;;;;;;2.80;0.60;;;;;;;16.70;100.00;99606.81;108922;1257;58549;-47
2023/07/10 04:33:59;;;;;;;0.80;0.60;;;;;;;16.77;100.00;99606.67;108133;1258;73800;-48
2023/07/10 04:36:26;;;;;;;3.00;0.60;;;;;;;16.84;100.00;99602.70;104773;1256;67996;-47
2023/07/10 04:38:53;;;;;;;0.80;0.60;;;;;;;16.90;100.00;99599.67;104879;1262;71209;-47
2023/07/10 04:41:22;;;;;;;2.10;1.00;;;;;;;16.97;100.00;99600.54;104825;1260;60442;-48
2023/07/10 04:43:49;;;;;;;2.80;0.60;;;;;;;17.06;100.00;99595.88;104668;1262;60590;-47
2023/07/10 04:46:17;;;;;;;2.80;0.60;;;;;;;17.15;100.00;99592.67;104803;1262;72612;-48
2023/07/10 04:48:45;;;;;;;1.30;0.60;;;;;;;17.23;100.00;99595.45;108803;1256;68353;-48
2023/07/10 04:51:13;;;;;;;2.30;0.70;;;;;;;17.32;100.00;99590.95;108506;1257;72622;-46
2023/07/10 04:53:40;;;;;;;1.10;0.70;;;;;;;17.40;100.00;99589.40;104708;1259;60700;-47
2023/07/10 04:56:10;;;;;;;1.50;0.60;;;;;;;17.47;100.00;99590.13;104642;1257;60526;-45
2023/07/10 04:58:49;;;;;;;0.90;0.70;;;;;;;17.53;100.00;99590.34;104664;1262;74586;-48
2023/07/10 05:01:17;;;;;;;2.10;0.60;;;;;;;17.60;100.00;99590.50;108741;1256;67876;-47
2023/07/10 05:03:45;;;;;;;1.00;0.60;;;;;;;17.68;100.00;99589.92;108748;1258;72912;-48
2023/07/10 05:06:12;;;;;;;0.80;0.70;;;;;;;17.75;100.00;99589.16;108817;1256;58776;-48
2023/07/10 05:08:40;;;;;;;1.00;0.60;;;;;;;17.84;100.00;99587.75;108874;1257;59995;-48
2023/07/10 05:11:07;;;;;;;1.80;0.60;;;;;;;17.92;100.00;99587.42;105462;1259;74281;-47
2023/07/10 05:13:34;;;;;;;2.30;0.70;;;;;;;18.02;100.00;99586.42;105062;1255;67660;-49
2023/07/10 05:16:02;;;;;;;0.60;0.60;;;;;;;18.11;100.00;99587.46;106464;1258;73157;-46
2023/07/10 05:18:30;;;;;;;0.70;0.60;;;;;;;18.21;100.00;99589.03;104942;1258;60503;-47
2023/07/10 05:20:58;;;;;;;1.50;0.60;;;;;;;18.29;100.00;99591.50;104990;1258;60578;-47
2023/07/10 05:23:26;;;;;;;0.70;0.60;;;;;;;18.36;100.00;99584.38;104819;1262;73837;-45
2023/07/10 05:25:57;;;;;;;3.80;0.90;;;;;;;18.43;100.00;99583.97;104882;1254;68336;-47
2023/07/10 05:28:25;;;;;;;0.60;0.60;;;;;;;18.49;100.00;99580.00;104805;1254;72607;-46
2023/07/10 05:30:53;;;;;;;1.10;0.60;;;;;;;18.53;100.00;99583.42;104893;1257;60636;-47
2023/07/10 05:33:21;;;;;;;1.30;0.50;;;;;;;18.58;100.00;99583.23;104932;1259;61599;-47
2023/07/10 05:35:49;;;;;;;0.70;0.60;;;;;;;18.66;100.00;99580.02;104899;1259;72661;-46
2023/07/10 05:38:17;;;;;;;0.60;0.60;;;;;;;18.74;100.00;99576.64;105051;1259;67515;-48
2023/07/10 05:40:45;;;;;;;0.80;0.60;;;;;;;18.82;100.00;99577.73;104932;1259;72445;-46
2023/07/10 05:43:13;;;;;;;0.70;0.60;;;;;;;18.90;100.00;99575.58;104664;1258;60476;-47
2023/07/10 05:45:40;;;;;;;0.90;0.60;;;;;;;18.95;100.00;99571.52;104884;1254;60334;-45
2023/07/10 05:48:08;;;;;;;2.30;0.60;;;;;;;19.01;100.00;99571.06;105823;1259;74307;-47
2023/07/10 05:50:35;;;;;;;0.80;0.70;;;;;;;19.05;100.00;99572.34;105051;1259;66800;-48
2023/07/10 05:53:03;;;;;;;3.80;0.70;;;;;;;19.09;100.00;99574.15;104990;1259;71393;-47
2023/07/10 05:55:30;;;;;;;0.80;0.60;;;;;;;19.13;100.00;99574.33;104890;1262;60581;-49
2023/07/10 05:57:57;;;;;;;1.20;0.70;;;;;;;19.18;100.00;99579.68;104974;1260;60508;-48
2023/07/10 06:00:25;;;;;;;0.80;0.60;;;;;;;19.22;100.00;99578.96;104945;1256;72592;-46
2023/07/10 06:02:53;;;;;;;1.20;0.60;;;;;;;19.28;100.00;99578.52;104870;1259;66644;-49
2023/07/10 06:05:20;;;;;;;1.50;0.60;;;;;;;19.33;100.00;99577.14;104915;1259;72406;-47
2023/07/10 06:07:47;;;;;;;2.40;0.70;;;;;;;19.41;100.00;99575.73;104867;1259;61126;-47
2023/07/10 06:10:15;;;;;;;1.20;0.80;;;;;;;19.51;100.00;99573.98;104933;1259;60564;-48
2023/07/10 06:12:42;;;;;;;0.50;0.50;;;;;;;19.60;100.00;99566.93;104941;1259;74234;-46
2023/07/10 06:15:10;;;;;;;0.80;0.60;;;;;;;19.67;100.00;99570.16;104957;1259;66339;-47
2023/07/10 06:17:37;;;;;;;2.30;0.70;;;;;;;19.72;100.00;99566.46;105019;1259;71263;-49
2023/07/10 06:20:05;;;;;;;2.90;0.90;;;;;;;19.75;100.00;99568.34;105104;1253;60924;-47
2023/07/10 06:22:32;;;;;;;0.60;0.50;;;;;;;19.77;100.00;99563.85;104992;1258;60550;-47
2023/07/10 06:25:00;;;;;;;2.20;0.50;;;;;;;19.79;100.00;99559.41;104987;1261;73296;-46
2023/07/10 06:27:27;;;;;;;4.10;0.70;;;;;;;19.84;100.00;99557.88;105022;1259;67851;-47
2023/07/10 06:29:56;;;;;;;2.40;0.70;;;;;;;19.89;100.00;99553.94;105047;1255;71587;-48
2023/07/10 06:32:24;;;;;;;1.20;0.50;;;;;;;19.95;100.00;99557.58;104904;1254;60430;-48
2023/07/10 06:34:51;;;;;;;0.70;0.50;;;;;;;19.99;100.00;99559.26;104978;1253;60964;-51
2023/07/10 06:37:18;;;;;;;1.80;0.60;;;;;;;20.02;100.00;99558.98;104936;1254;72983;-50
2023/07/10 06:40:03;;;;;;;1.70;0.60;;;;;;;20.05;100.00;99556.73;105026;1260;66531;-48
2023/07/10 06:42:31;;;;;;;0.70;0.60;;;;;;;20.11;100.00;99556.20;105683;1260;70787;-50
2023/07/10 06:44:58;;;;;;;0.70;0.60;;;;;;;20.16;100.00;99549.95;104966;1258;60964;-45
2023/07/10 06:47:25;;;;;;;0.80;0.70;;;;;;;20.21;100.00;99559.13;105001;1255;60429;-50
2023/07/10 06:49:53;;;;;;;1.10;0.70;;;;;;;20.24;100.00;99553.34;105652;1258;74290;-48
2023/07/10 06:52:20;;;;;;;1.70;0.70;;;;;;;20.26;100.00;99551.08;104941;1259;65968;-48
2023/07/10 06:54:48;;;;;;;0.90;0.60;;;;;;;20.29;100.00;99551.62;104979;1259;72714;-47
2023/07/10 06:57:15;;;;;;;1.80;0.60;;;;;;;20.32;100.00;99546.02;104899;1254;60563;-50
2023/07/10 06:59:42;;;;;;;1.30;0.60;;;;;;;20.36;100.00;99544.39;104887;1254;60376;-47
2023/07/10 07:02:11;;;;;;;0.80;0.80;;;;;;;20.42;100.00;99542.27;104851;1260;72575;-49
2023/07/10 07:04:40;;;;;;;1.50;0.60;;;;;;;20.47;100.00;99534.88;104661;1254;67547;-47
2023/07/10 07:07:07;;;;;;;1.10;0.70;;;;;;;20.51;100.00;99536.31;105629;1254;72404;-48
2023/07/10 07:09:35;;;;;;;0.90;0.70;;;;;;;20.55;100.00;99534.45;105602;1254;60475;-50
2023/07/10 07:12:03;;;;;;;0.80;0.50;;;;;;;20.60;100.00;99532.02;104958;1255;60537;-49
2023/07/10 07:14:31;;;;;;;0.50;0.50;;;;;;;20.65;100.00;99528.05;104970;1256;73791;-49
2023/07/10 07:16:58;;;;;;;0.60;0.60;;;;;;;20.69;100.00;99520.67;105050;1253;65845;-48
2023/07/10 07:19:25;;;;;;;1.20;0.60;;;;;;;20.75;100.00;99524.57;104933;1260;73146;-49
2023/07/10 07:21:53;;;;;;;0.70;0.60;;;;;;;20.81;100.00;99520.91;104911;1258;60582;-50
2023/07/10 07:24:20;;;;;;;0.80;0.60;;;;;;;20.83;100.00;99516.34;104932;1254;62152;-49
2023/07/10 07:26:47;;;;;;;3.20;0.60;;;;;;;20.86;100.00;99515.68;104838;1256;72623;-50
2023/07/10 07:29:18;;;;;;;0.80;0.60;;;;;;;20.90;100.00;99518.43;104988;1257;65531;-51
2023/07/10 07:31:45;;;;;;;0.70;0.70;;;;;;;20.92;100.00;99514.71;104962;1257;71900;-51
2023/07/10 07:34:13;;;;;;;0.90;0.60;;;;;;;20.95;100.00;99517.52;104722;1256;60601;-49
2023/07/10 07:36:40;;;;;;;0.60;0.60;;;;;;;20.99;100.00;99513.73;104757;1259;60399;-49
2023/07/10 07:39:07;;;;;;;2.00;1.00;;;;;;;21.03;100.00;99511.27;104871;1259;71501;-44
2023/07/10 07:41:35;;;;;;;1.50;0.60;;;;;;;21.10;100.00;99515.21;104958;1254;67329;-49
2023/07/10 07:44:03;;;;;;;1.20;0.60;;;;;;;21.15;100.00;99512.36;104849;1256;72657;-48
2023/07/10 07:46:30;;;;;;;0.60;0.60;;;;;;;21.20;100.00;99509.31;104946;1260;60577;-46
2023/07/10 07:48:57;;;;;;;0.40;0.40;;;;;;;21.24;100.00;99511.14;104955;1254;60749;-48
2023/07/10 07:51:25;;;;;;;1.50;0.40;;;;;;;21.29;100.00;99513.77;104901;1254;72673;-47
2023/07/10 07:54:12;;;;;;;1.50;0.30;;;;;;;21.32;100.00;99509.23;108915;1254;67541;-49
2023/07/10 07:56:40;;;;;;;0.30;0.30;;;;;;;21.34;100.00;99501.80;109061;1254;71814;-48
2023/07/10 07:59:07;;;;;;;0.60;0.40;;;;;;;21.36;100.00;99503.23;108981;1254;62470;-50
2023/07/10 08:01:34;;;;;;;0.60;0.40;;;;;;;21.38;100.00;99502.27;108992;1254;60003;-49
2023/07/10 08:04:03;;;;;;;0.30;0.20;;;;;;;21.42;100.00;99500.62;109062;1254;72552;-51
2023/07/10 08:06:31;;;;;;;0.30;0.30;;;;;;;21.48;100.00;99492.93;109042;1254;68346;-49
2023/07/10 08:09:00;;;;;;;0.20;0.20;;;;;;;21.54;100.00;99498.53;109083;1253;71807;-48
2023/07/10 08:11:27;;;;;;;0.30;0.20;;;;;;;21.60;100.00;99493.38;109053;1254;60069;-50
2023/07/10 08:13:54;;;;;;;0.30;0.30;;;;;;;21.65;100.00;99493.09;108983;1254;58832;-49
2023/07/10 08:16:22;;;;;;;0.30;0.30;;;;;;;21.64;100.00;99484.56;109125;1254;72604;-49
2023/07/10 08:18:50;;;;;;;0.40;0.30;;;;;;;21.65;100.00;99484.14;109103;1257;68410;-48
2023/07/10 08:21:18;;;;;;;1.60;0.40;;;;;;;21.69;100.00;99482.81;106867;1260;73703;-47
2023/07/10 08:23:45;;;;;;;0.30;0.30;;;;;;;21.72;100.00;99480.84;105933;1258;61703;-47
2023/07/10 08:26:13;;;;;;;0.30;0.20;;;;;;;21.77;100.00;99481.80;104971;1260;60454;-47
2023/07/10 08:28:40;;;;;;;0.40;0.30;;;;;;;21.83;100.00;99474.45;104872;1254;73797;-47
2023/07/10 08:31:08;;;;;;;1.00;0.30;;;;;;;21.90;100.00;99473.89;104939;1254;67535;-47
2023/07/10 08:33:35;;;;;;;0.60;0.40;;;;;;;21.97;100.00;99476.92;105029;1260;72684;-48
2023/07/10 08:36:04;;;;;;;2.20;0.30;;;;;;;21.98;100.00;99479.73;104895;1260;60566;-49
2023/07/10 08:38:33;;;;;;;1.50;0.30;;;;;;;21.99;100.00;99474.56;104997;1255;61042;-50
2023/07/10 08:41:09;;;;;;;0.40;0.30;;;;;;;21.99;100.00;99475.60;104956;1255;74716;-50
2023/07/10 08:43:38;;;;;;;0.80;0.30;;;;;;;22.01;100.00;99471.64;105285;1259;67929;-47
2023/07/10 08:46:19;;;;;;;2.40;0.40;;;;;;;22.06;100.00;99470.54;104831;1258;72317;-48
2023/07/10 08:48:46;;;;;;;0.40;0.30;;;;;;;22.16;100.00;99466.23;105002;1260;60633;-48
2023/07/10 08:51:24;;;;;;;0.20;0.20;;;;;;;22.30;100.00;99466.34;104989;1258;60371;-49
2023/07/10 08:53:56;;;;;;;0.90;0.30;;;;;;;22.42;100.00;99463.77;104951;1260;74184;-49
2023/07/10 08:56:29;;;;;;;1.00;0.30;;;;;;;22.51;100.00;99461.15;104884;1254;67558;-48
2023/07/10 08:59:01;;;;;;;0.30;0.30;;;;;;;22.57;100.00;99469.88;104885;1259;72331;-51
2023/07/10 09:01:31;;;;;;;2.70;0.20;;;;;;;22.54;100.00;99463.83;105031;1254;60386;-48
2023/07/10 09:03:58;;;;;;;0.30;0.30;;;;;;;22.50;100.00;99465.73;105425;1254;60549;-51
2023/07/10 09:06:33;;;;;;;0.40;0.30;;;;;;;22.43;100.00;99464.64;105669;1254;73851;-48
2023/07/10 09:09:00;;;;;;;0.80;0.30;;;;;;;22.36;100.00;99470.29;105371;1254;65267;-50
2023/07/10 09:11:28;;;;;;;0.30;0.30;;;;;;;22.28;100.00;99464.83;104794;1256;72585;-48
2023/07/10 09:14:08;;;;;;;0.30;0.30;;;;;;;22.20;100.00;99462.50;104717;1256;60444;-48
2023/07/10 09:16:36;;;;;;;1.40;0.30;;;;;;;22.17;100.00;99457.38;105008;1259;60560;-51
2023/07/10 09:19:07;;;;;;;0.30;0.30;;;;;;;22.22;100.00;99447.91;105185;1257;73856;-49
2023/07/10 09:21:35;;;;;;;1.70;0.30;;;;;;;22.29;100.00;99447.77;105250;1254;67487;-48
2023/07/10 09:24:04;;;;;;;0.20;0.20;;;;;;;22.35;100.00;99455.71;105282;1258;71428;-50
2023/07/10 09:26:38;;;;;;;0.40;0.30;;;;;;;22.40;100.00;99456.48;105205;1258;62359;-49
2023/07/10 09:29:09;;;;;;;0.50;0.30;;;;;;;22.47;100.00;99451.71;105393;1258;60569;-47
2023/07/10 09:32:06;;;;;;;0.60;0.30;;;;;;;22.50;100.00;99450.31;105226;1254;72979;-47
2023/07/10 09:34:34;;;;;;;1.70;0.30;;;;;;;22.52;100.00;99446.64;105094;1259;67905;-47
2023/07/10 09:37:03;;;;;;;0.70;0.30;;;;;;;22.58;100.00;99442.36;105251;1259;72418;-48
2023/07/10 09:39:32;;;;;;;0.30;0.20;;;;;;;22.69;100.00;99445.67;105704;1254;60730;-49
2023/07/10 09:42:03;;;;;;;0.30;0.30;;;;;;;22.82;100.00;99447.27;105468;1253;61017;-48
2023/07/10 09:44:39;;;;;;;0.30;0.30;;;;;;;22.94;100.00;99445.38;105638;1257;73806;-49
2023/07/10 09:47:08;;;;;;;0.20;0.20;;;;;;;23.06;100.00;99439.80;104985;1258;66534;-46
2023/07/10 09:49:40;;;;;;;0.20;0.20;;;;;;;23.17;100.00;99440.21;105172;1260;72414;-47
2023/07/10 09:52:21;;;;;;;0.90;0.20;;;;;;;23.30;100.00;99437.55;104629;1254;60560;-48
2023/07/10 09:54:48;;;;;;;0.80;0.20;;;;;;;23.41;100.00;99438.02;104990;1254;60371;-48
2023/07/10 09:57:17;;;;;;;1.10;0.30;;;;;;;23.48;100.00;99439.35;104973;1258;74148;-48
2023/07/10 09:59:49;;;;;;;0.20;0.20;;;;;;;23.48;100.00;99436.35;104749;1259;67614;-47
2023/07/10 10:02:26;;;;;;;0.20;0.10;;;;;;;23.50;100.00;99438.73;104759;1255;72889;-49
2023/07/10 10:05:08;;;;;;;0.40;0.20;;;;;;;23.53;100.00;99438.44;105927;1257;60582;-48
2023/07/10 10:07:43;;;;;;;1.50;0.20;;;;;;;23.49;100.00;99444.88;104886;1254;60476;-47
2023/07/10 10:10:24;;;;;;;0.30;0.30;;;;;;;23.44;100.00;99440.14;104850;1259;73947;-48
2023/07/10 10:13:03;;;;;;;0.20;0.20;;;;;;;23.44;100.00;99437.98;105104;1256;65898;-49
2023/07/10 10:15:42;;;;;;;0.20;0.20;;;;;;;23.47;100.00;99436.31;105703;1254;72678;-49
2023/07/10 10:18:17;;;;;;;0.20;0.20;;;;;;;23.48;100.00;99446.69;104972;1253;60479;-49
2023/07/10 10:20:45;;;;;;;0.10;0.10;;;;;;;23.42;100.00;99444.14;105159;1254;60663;-50
2023/07/10 10:23:31;;;;;;;0.10;0.10;;;;;;;23.34;100.00;99440.28;104897;1253;72562;-48
2023/07/10 10:26:22;;;;;;;0.20;0.20;;;;;;;23.23;100.00;99438.36;104948;1253;66461;-47
2023/07/10 10:29:08;;;;;;;0.30;0.30;;;;;;;23.22;100.00;99432.19;104949;1257;72805;-47
2023/07/10 10:31:40;;;;;;;0.10;0.10;;;;;;;23.33;100.00;99429.16;104946;1254;60475;-47
2023/07/10 10:34:26;;;;;;;0.20;0.20;;;;;;;23.41;100.00;99427.21;104887;1254;60600;-48
2023/07/10 10:37:03;;;;;;;0.60;0.20;;;;;;;23.46;100.00;99429.82;104868;1253;72694;-46
2023/07/10 10:39:36;;;;;;;0.20;0.20;;;;;;;23.51;100.00;99426.80;104945;1254;66829;-47
2023/07/10 10:42:09;;;;;;;0.20;0.20;;;;;;;23.53;100.00;99428.06;104839;1254;72663;-48
2023/07/10 10:44:41;;;;;;;0.20;0.20;;;;;;;23.54;100.00;99430.45;104935;1258;61115;-49
2023/07/10 10:47:44;;;;;;;0.20;0.20;;;;;;;23.54;100.00;99425.16;105727;1254;60637;-48
2023/07/10 10:50:33;;;;;;;0.20;0.20;;;;;;;23.55;100.00;99425.56;104686;1264;73858;-48
2023/07/10 10:53:19;;;;;;;0.20;0.20;;;;;;;23.61;100.00;99420.17;104911;1257;67512;-49
2023/07/10 10:55:52;;;;;;;0.20;0.20;;;;;;;23.65;100.00;99413.17;109078;1257;72444;-48
2023/07/10 10:58:29;;;;;;;0.20;0.20;;;;;;;23.60;100.00;99412.23;109070;1256;60072;-48
2023/07/10 11:01:18;;;;;;;1.10;0.20;;;;;;;23.55;100.00;99411.15;109129;1253;58821;-49
2023/07/10 11:03:47;;;;;;;0.20;0.20;;;;;;;23.50;100.00;99413.89;109084;1253;73777;-48
2023/07/10 11:06:44;;;;;;;0.30;0.20;;;;;;;23.44;100.00;99411.91;108889;1253;66469;-50
2023/07/10 11:09:33;;;;;;;0.20;0.20;;;;;;;23.37;100.00;99423.06;109026;1252;72798;-49
2023/07/10 11:12:00;;;;;;;1.40;0.20;;;;;;;23.27;100.00;99419.24;108833;1254;59141;-48
2023/07/10 11:14:27;;;;;;;0.30;0.20;;;;;;;23.13;100.00;99425.50;109127;1253;58847;-49
2023/07/10 11:16:55;;;;;;;0.30;0.20;;;;;;;23.03;100.00;99434.17;109051;1252;73782;-49
2023/07/10 11:19:26;;;;;;;1.20;0.20;;;;;;;22.91;100.00;99430.36;108886;1253;66323;-49
2023/07/10 11:21:53;;;;;;;0.10;0.10;;;;;;;22.83;100.00;99425.90;108915;1254;72663;-49
2023/07/10 11:24:23;;;;;;;0.30;0.20;;;;;;;22.79;100.00;99426.86;109089;1254;58919;-49
2023/07/10 11:26:51;;;;;;;1.00;0.20;;;;;;;22.78;100.00;99421.70;108967;1253;60952;-49
2023/07/10 11:29:35;;;;;;;0.40;0.40;;;;;;;22.85;100.00;99418.92;108942;1253;72552;-48
2023/07/10 11:32:09;;;;;;;0.30;0.20;;;;;;;22.98;100.00;99413.67;109004;1253;67342;-49